La Veta, CO

8:27 PM MST on February 21, 2017 (GMT -0700)
La Veta Pass

Weather History for KVTP - October, 2013

Change the Weather History Date:

Sunday, October 6, 2013

  Actual Average (KALS) Record (KALS)
Temperature  
Mean Temperature 40 °F -  
Max Temperature 53 °F 67 °F 78 °F (1934)
Min Temperature 26 °F 27 °F 13 °F (1969)
Degree Days  
Heating Degree Days 26    
Moisture  
Dew Point 10 °F    
Average Humidity 31    
Maximum Humidity 47    
Minimum Humidity 19    
Precipitation  
Precipitation 0.00 in - - ()
Sea Level Pressure  
Sea Level Pressure 30.46 in    
Wind  
Wind Speed 6 mph (WSW)    
Max Wind Speed 10 mph    
Max Gust Speed 17 mph    
Visibility 10 miles    
Events Thunderstorm    
Averages and records for this station are not official NWS values.
T = Trace of Precipitation, MM = Missing Value Source: NWS Daily Summary

Daily Weather History Graph

Daily Weather History Graph

Search for Another Location

Airport or City:

Trip Planner

Search our weather history database for the weather conditions in past years. The results will help you decide how hot, cold, wet, or windy it might be!

Date:

Astronomy

Oct. 06, 2013 Rise Set
Actual Time 7:00 AM MDT 6:35 PM MDT
Civil Twilight 6:34 AM MDT 7:02 PM MDT
Nautical Twilight 6:04 AM MDT 7:32 PM MDT
Astronomical Twilight 5:34 AM MDT 8:02 PM MDT
Moon 8:45 AM MDT (10/6) 7:40 PM MDT (10/6)
Length of Visible Light 12h 27m
Length of Day
11h 35m
Waxing Crescent, 4% of the Moon is Illuminated
Oct 6
Waxing Crescent
Oct 11
First Quarter
Oct 18
Full
Oct 26
Last Quarter
Nov 3
New

Hourly Weather History & Observations

Time (MDT) Temp. Windchill Dew Point Humidity Pressure Visibility Wind Dir Wind Speed Gust Speed Precip Events Conditions
12:14 AM 30.2 °F 22.6 °F 8.6 °F 40% 30.37 in 10.0 mi SW 8.1 mph - N/A   Clear
12:33 AM 32.0 °F 26.4 °F 10.4 °F 41% 30.38 in 10.0 mi SW 5.8 mph 17.3 mph N/A   Clear
12:54 AM 32.0 °F 27.5 °F 10.4 °F 41% 30.39 in 10.0 mi SSW 4.6 mph - N/A   Clear
1:14 AM 32.0 °F 27.5 °F 10.4 °F 41% 30.39 in 10.0 mi SW 4.6 mph - N/A   Clear
1:34 AM 30.2 °F 26.7 °F 10.4 °F 44% 30.40 in 10.0 mi SW 3.5 mph - N/A   Clear
1:54 AM 30.2 °F 23.4 °F 10.4 °F 44% 30.41 in 10.0 mi SSW 6.9 mph - N/A   Clear
2:13 AM 30.2 °F 25.4 °F 10.4 °F 44% 30.40 in 10.0 mi WSW 4.6 mph - N/A   Clear
2:34 AM 30.2 °F 22.6 °F 10.4 °F 44% 30.39 in 10.0 mi SW 8.1 mph - N/A   Clear
2:53 AM 28.4 °F 23.3 °F 10.4 °F 47% 30.39 in 10.0 mi WSW 4.6 mph - N/A   Clear
3:13 AM 28.4 °F 24.6 °F 10.4 °F 47% 30.38 in 10.0 mi SSW 3.5 mph - N/A   Clear
3:34 AM 28.4 °F 23.3 °F 10.4 °F 47% 30.38 in 10.0 mi SSW 4.6 mph - N/A   Clear
3:53 AM 28.4 °F 23.3 °F 10.4 °F 47% 30.39 in 10.0 mi SW 4.6 mph - N/A   Clear
4:13 AM 28.4 °F 22.2 °F 10.4 °F 47% 30.39 in 10.0 mi SSW 5.8 mph - N/A   Clear
4:34 AM 28.4 °F 23.3 °F 10.4 °F 47% 30.40 in 10.0 mi SW 4.6 mph 16.1 mph N/A   Clear
4:53 AM 28.4 °F 23.3 °F 8.6 °F 43% 30.40 in 10.0 mi SW 4.6 mph - N/A   Clear
5:14 AM 28.4 °F 23.3 °F 8.6 °F 43% 30.41 in 10.0 mi WSW 4.6 mph - N/A   Clear
5:33 AM 28.4 °F 23.3 °F 8.6 °F 43% 30.41 in 10.0 mi WSW 4.6 mph - N/A   Clear
5:54 AM 28.4 °F 23.3 °F 10.4 °F 47% 30.42 in 10.0 mi WNW 4.6 mph - N/A   Clear
6:14 AM 28.4 °F 24.6 °F 10.4 °F 47% 30.43 in 10.0 mi SW 3.5 mph - N/A   Clear
6:34 AM 26.6 °F 21.2 °F 8.6 °F 47% 30.43 in 10.0 mi SW 4.6 mph - N/A   Clear
6:54 AM 28.4 °F 22.2 °F 6.8 °F 40% 30.43 in 10.0 mi SW 5.8 mph - N/A   Clear
7:13 AM 28.4 °F 22.2 °F 5.0 °F 37% 30.43 in 10.0 mi SSW 5.8 mph - N/A   Clear
7:34 AM 30.2 °F 25.4 °F 5.0 °F 34% 30.44 in 10.0 mi SW 4.6 mph - N/A   Clear
7:54 AM 30.2 °F 24.3 °F 5.0 °F 34% 30.44 in 10.0 mi SW 5.8 mph - N/A   Clear
8:13 AM 32.0 °F 26.4 °F 5.0 °F 32% 30.44 in 10.0 mi SSW 5.8 mph - N/A   Clear
8:34 AM 32.0 °F 26.4 °F 5.0 °F 32% 30.45 in 10.0 mi SW 5.8 mph - N/A   Clear
8:54 AM 33.8 °F 28.6 °F 5.0 °F 30% 30.46 in 10.0 mi SW 5.8 mph - N/A   Clear
9:14 AM 35.6 °F 31.7 °F 5.0 °F 28% 30.46 in 10.0 mi WSW 4.6 mph - N/A   Clear
9:34 AM 37.4 °F 33.8 °F 8.6 °F 30% 30.46 in 10.0 mi WSW 4.6 mph - N/A   Clear
9:54 AM 39.2 °F 35.0 °F 8.6 °F 28% 30.47 in 10.0 mi West 5.8 mph - N/A   Clear
10:14 AM 41.0 °F 37.1 °F 8.6 °F 26% 30.48 in 10.0 mi West 5.8 mph - N/A   Clear
10:34 AM 42.8 °F 39.3 °F 8.6 °F 25% 30.48 in 10.0 mi WSW 5.8 mph - N/A   Clear
10:53 AM 42.8 °F 39.3 °F 6.8 °F 23% 30.48 in 10.0 mi West 5.8 mph - N/A   Clear
11:14 AM 44.6 °F 40.7 °F 8.6 °F 23% 30.48 in 10.0 mi West 6.9 mph - N/A   Clear
11:33 AM 46.4 °F 42.9 °F 8.6 °F 22% 30.48 in 10.0 mi West 6.9 mph - N/A   Clear
11:54 AM 48.2 °F - 10.4 °F 22% 30.47 in 10.0 mi WSW 6.9 mph - N/A   Clear
12:13 PM 46.4 °F 42.9 °F 10.4 °F 23% 30.48 in 10.0 mi West 6.9 mph - N/A   Clear
12:34 PM 50.0 °F - 12.2 °F 22% 30.48 in 10.0 mi West 5.8 mph - N/A   Clear
12:55 PM 51.8 °F - 10.4 °F 19% 30.48 in 10.0 mi West 5.8 mph - N/A   Clear
1:14 PM 51.8 °F - 12.2 °F 21% 30.48 in 10.0 mi West 4.6 mph - N/A   Clear
1:34 PM 53.6 °F - 12.2 °F 19% 30.47 in 10.0 mi West 5.8 mph - N/A   Clear
1:54 PM 53.6 °F - 14.0 °F 21% 30.46 in 10.0 mi SW 6.9 mph - N/A   Clear
2:13 PM 53.6 °F - 14.0 °F 21% 30.46 in 10.0 mi West 5.8 mph - N/A   Clear
2:34 PM 53.6 °F - 12.2 °F 19% 30.46 in 10.0 mi West 5.8 mph - N/A   Clear
2:54 PM 53.6 °F - 12.2 °F 19% 30.46 in 10.0 mi WSW 5.8 mph - N/A   Clear
3:13 PM 53.6 °F - 12.2 °F 19% 30.46 in 10.0 mi SW 6.9 mph - N/A   Clear
3:34 PM 53.6 °F - 14.0 °F 21% 30.46 in 10.0 mi West 5.8 mph - N/A   Clear
3:54 PM 53.6 °F - 14.0 °F 21% 30.47 in 10.0 mi West 5.8 mph - N/A   Clear
4:12 PM 53.6 °F - 14.0 °F 21% 30.47 in 10.0 mi WSW 3.5 mph - N/A   Clear
4:34 PM 53.6 °F - 14.0 °F 21% 30.47 in 10.0 mi Calm Calm - N/A   Clear
4:54 PM 53.6 °F - 14.0 °F 21% 30.48 in 10.0 mi Calm Calm - N/A   Clear
5:13 PM 50.0 °F - 12.2 °F 22% 30.48 in 10.0 mi ENE 5.8 mph - N/A   Clear
5:34 PM 44.6 °F 40.7 °F 12.2 °F 27% 30.48 in 10.0 mi ENE 6.9 mph - N/A   Clear
5:53 PM 44.6 °F 40.2 °F 12.2 °F 27% 30.49 in 10.0 mi ENE 8.1 mph - N/A   Clear
6:14 PM 44.6 °F 39.7 °F 12.2 °F 27% 30.49 in 10.0 mi ENE 9.2 mph - N/A   Clear
6:34 PM 42.8 °F 37.5 °F 10.4 °F 27% 30.49 in 10.0 mi ENE 9.2 mph - N/A   Clear
6:53 PM 42.8 °F 37.0 °F 10.4 °F 27% 30.49 in 10.0 mi East 10.4 mph - N/A   Clear
7:14 PM 42.8 °F 37.5 °F 10.4 °F 27% 30.49 in 10.0 mi East 9.2 mph - N/A   Clear
7:34 PM 42.8 °F 38.6 °F 10.4 °F 27% 30.50 in 10.0 mi ENE 6.9 mph - N/A   Clear
7:54 PM 42.8 °F 39.3 °F 10.4 °F 27% 30.50 in 10.0 mi ENE 5.8 mph - N/A   Clear
8:14 PM 42.8 °F 39.3 °F 10.4 °F 27% 30.50 in 10.0 mi ENE 5.8 mph - N/A   Clear
8:34 PM 42.8 °F 40.1 °F 10.4 °F 27% 30.50 in 10.0 mi ENE 4.6 mph - N/A   Clear
8:54 PM 41.0 °F 38.0 °F 10.4 °F 29% 30.50 in 10.0 mi NE 4.6 mph - N/A Thunderstorm Thunderstorm
9:13 PM 39.2 °F 37.0 °F 10.4 °F 31% 30.50 in 10.0 mi NE 3.5 mph - N/A   Clear
9:34 PM 39.2 °F 37.0 °F 10.4 °F 31% 30.51 in 10.0 mi NNE 3.5 mph - N/A   Clear
9:53 PM 41.0 °F 38.0 °F 10.4 °F 29% 30.51 in 10.0 mi NNE 4.6 mph - N/A   Clear
10:14 PM 41.0 °F 38.0 °F 10.4 °F 29% 30.50 in 10.0 mi NNE 4.6 mph - N/A   Clear
10:33 PM 41.0 °F 39.0 °F 10.4 °F 29% 30.50 in 10.0 mi NNE 3.5 mph - N/A   Clear
10:54 PM 42.8 °F - 10.4 °F 27% 30.50 in 10.0 mi Calm Calm - N/A   Clear
11:14 PM 42.8 °F - 10.4 °F 27% 30.50 in 10.0 mi Calm Calm - N/A   Clear
11:34 PM 42.8 °F - 10.4 °F 27% 30.50 in 10.0 mi Calm Calm - N/A   Clear
11:54 PM 41.0 °F 38.0 °F 12.2 °F 31% 30.49 in 10.0 mi SW 4.6 mph - N/A   Clear